sensor_id;sensor_type;location;lat;lon;timestamp;P1;durP1;ratioP1;P2;durP2;ratioP2
68310;SDS011;55157;51.036;17.058;2024-03-23T00:56:07;34.17;;;17.35;;
68310;SDS011;55157;51.036;17.058;2024-03-23T00:58:32;36.53;;;19.70;;
68310;SDS011;55157;51.036;17.058;2024-03-23T01:00:57;42.88;;;22.45;;
68310;SDS011;55157;51.036;17.058;2024-03-23T01:03:22;42.15;;;22.27;;
68310;SDS011;55157;51.036;17.058;2024-03-23T01:05:48;32.83;;;18.10;;
68310;SDS011;55157;51.036;17.058;2024-03-23T01:08:13;45.75;;;22.70;;
68310;SDS011;55157;51.036;17.058;2024-03-23T01:10:38;45.95;;;22.23;;
68310;SDS011;55157;51.036;17.058;2024-03-23T01:13:05;40.77;;;20.10;;
68310;SDS011;55157;51.036;17.058;2024-03-23T01:15:31;39.20;;;19.75;;
68310;SDS011;55157;51.036;17.058;2024-03-23T01:17:56;42.13;;;22.20;;
68310;SDS011;55157;51.036;17.058;2024-03-23T01:20:21;42.58;;;21.65;;
68310;SDS011;55157;51.036;17.058;2024-03-23T01:22:46;38.47;;;20.58;;
68310;SDS011;55157;51.036;17.058;2024-03-23T01:25:11;40.90;;;20.88;;
68310;SDS011;55157;51.036;17.058;2024-03-23T01:27:37;34.20;;;18.70;;
68310;SDS011;55157;51.036;17.058;2024-03-23T01:30:04;42.95;;;20.90;;
68310;SDS011;55157;51.036;17.058;2024-03-23T01:32:30;31.40;;;17.67;;
68310;SDS011;55157;51.036;17.058;2024-03-23T01:34:55;25.00;;;15.90;;
68310;SDS011;55157;51.036;17.058;2024-03-23T01:37:20;27.23;;;17.13;;
68310;SDS011;55157;51.036;17.058;2024-03-23T01:39:45;28.00;;;15.95;;
68310;SDS011;55157;51.036;17.058;2024-03-23T01:42:10;23.00;;;15.50;;
68310;SDS011;55157;51.036;17.058;2024-03-23T01:44:36;24.60;;;15.60;;
68310;SDS011;55157;51.036;17.058;2024-03-23T01:47:02;25.48;;;15.75;;
68310;SDS011;55157;51.036;17.058;2024-03-23T01:49:28;26.20;;;15.38;;
68310;SDS011;55157;51.036;17.058;2024-03-23T01:51:53;20.40;;;14.82;;
68310;SDS011;55157;51.036;17.058;2024-03-23T01:54:18;24.48;;;15.80;;
68310;SDS011;55157;51.036;17.058;2024-03-23T01:56:44;24.17;;;15.85;;
68310;SDS011;55157;51.036;17.058;2024-03-23T01:59:09;26.73;;;15.05;;
68310;SDS011;55157;51.036;17.058;2024-03-23T02:01:34;20.97;;;14.33;;
68310;SDS011;55157;51.036;17.058;2024-03-23T02:04:01;21.23;;;14.73;;
68310;SDS011;55157;51.036;17.058;2024-03-23T02:06:26;24.83;;;15.13;;
68310;SDS011;55157;51.036;17.058;2024-03-23T02:08:52;24.00;;;14.63;;
68310;SDS011;55157;51.036;17.058;2024-03-23T02:11:17;25.40;;;15.20;;
68310;SDS011;55157;51.036;17.058;2024-03-23T02:13:43;23.70;;;15.20;;
68310;SDS011;55157;51.036;17.058;2024-03-23T02:16:08;24.60;;;16.43;;
68310;SDS011;55157;51.036;17.058;2024-03-23T02:18:33;24.17;;;15.10;;
68310;SDS011;55157;51.036;17.058;2024-03-23T02:21:00;26.48;;;16.63;;
68310;SDS011;55157;51.036;17.058;2024-03-23T02:23:27;23.50;;;15.27;;
68310;SDS011;55157;51.036;17.058;2024-03-23T02:25:52;26.60;;;15.45;;
68310;SDS011;55157;51.036;17.058;2024-03-23T02:28:17;24.13;;;15.80;;
68310;SDS011;55157;51.036;17.058;2024-03-23T02:30:42;26.53;;;15.13;;
68310;SDS011;55157;51.036;17.058;2024-03-23T02:33:07;22.90;;;15.23;;
68310;SDS011;55157;51.036;17.058;2024-03-23T02:35:32;22.03;;;16.20;;
68310;SDS011;55157;51.036;17.058;2024-03-23T02:37:58;24.83;;;15.65;;
68310;SDS011;55157;51.036;17.058;2024-03-23T02:40:24;22.52;;;13.98;;
68310;SDS011;55157;51.036;17.058;2024-03-23T02:42:50;23.35;;;15.98;;
68310;SDS011;55157;51.036;17.058;2024-03-23T02:45:15;28.55;;;17.02;;
68310;SDS011;55157;51.036;17.058;2024-03-23T02:47:40;31.48;;;16.35;;
68310;SDS011;55157;51.036;17.058;2024-03-23T02:50:06;31.08;;;18.35;;
68310;SDS011;55157;51.036;17.058;2024-03-23T02:52:31;24.55;;;15.57;;
68310;SDS011;55157;51.036;17.058;2024-03-23T02:54:57;27.30;;;16.77;;
68310;SDS011;55157;51.036;17.058;2024-03-23T02:57:23;22.25;;;15.55;;
68310;SDS011;55157;51.036;17.058;2024-03-23T02:59:49;28.02;;;16.65;;
68310;SDS011;55157;51.036;17.058;2024-03-23T03:02:16;21.20;;;15.00;;
68310;SDS011;55157;51.036;17.058;2024-03-23T03:04:41;24.60;;;16.27;;
68310;SDS011;55157;51.036;17.058;2024-03-23T03:07:06;21.65;;;14.82;;
68310;SDS011;55157;51.036;17.058;2024-03-23T03:09:31;22.13;;;14.60;;
68310;SDS011;55157;51.036;17.058;2024-03-23T03:11:57;27.33;;;16.13;;
68310;SDS011;55157;51.036;17.058;2024-03-23T03:14:23;26.57;;;15.73;;
68310;SDS011;55157;51.036;17.058;2024-03-23T03:16:48;22.98;;;16.80;;
68310;SDS011;55157;51.036;17.058;2024-03-23T03:19:14;26.20;;;17.02;;
68310;SDS011;55157;51.036;17.058;2024-03-23T03:21:39;23.67;;;16.17;;
68310;SDS011;55157;51.036;17.058;2024-03-23T03:24:06;28.48;;;17.60;;
68310;SDS011;55157;51.036;17.058;2024-03-23T03:26:31;25.60;;;16.45;;
68310;SDS011;55157;51.036;17.058;2024-03-23T03:28:56;31.05;;;16.88;;
68310;SDS011;55157;51.036;17.058;2024-03-23T03:31:23;24.67;;;16.55;;
68310;SDS011;55157;51.036;17.058;2024-03-23T03:33:49;22.83;;;15.70;;
68310;SDS011;55157;51.036;17.058;2024-03-23T03:36:14;21.48;;;15.00;;
68310;SDS011;55157;51.036;17.058;2024-03-23T03:38:39;23.77;;;14.98;;
68310;SDS011;55157;51.036;17.058;2024-03-23T03:41:05;21.70;;;15.65;;
68310;SDS011;55157;51.036;17.058;2024-03-23T03:43:30;21.52;;;13.68;;
68310;SDS011;55157;51.036;17.058;2024-03-23T03:45:55;24.00;;;16.00;;
68310;SDS011;55157;51.036;17.058;2024-03-23T03:48:22;21.95;;;15.27;;
68310;SDS011;55157;51.036;17.058;2024-03-23T03:50:47;22.17;;;14.82;;
68310;SDS011;55157;51.036;17.058;2024-03-23T03:53:13;19.42;;;14.57;;
68310;SDS011;55157;51.036;17.058;2024-03-23T03:55:38;23.92;;;15.02;;
68310;SDS011;55157;51.036;17.058;2024-03-23T03:58:03;22.73;;;15.15;;
68310;SDS011;55157;51.036;17.058;2024-03-23T04:00:28;22.65;;;15.25;;
68310;SDS011;55157;51.036;17.058;2024-03-23T04:02:54;20.10;;;14.13;;
68310;SDS011;55157;51.036;17.058;2024-03-23T04:05:20;23.67;;;16.60;;
68310;SDS011;55157;51.036;17.058;2024-03-23T04:07:46;21.75;;;14.00;;
68310;SDS011;55157;51.036;17.058;2024-03-23T04:10:11;20.00;;;13.95;;
68310;SDS011;55157;51.036;17.058;2024-03-23T04:12:36;23.85;;;15.40;;
68310;SDS011;55157;51.036;17.058;2024-03-23T04:15:01;22.38;;;15.32;;
68310;SDS011;55157;51.036;17.058;2024-03-23T04:17:27;20.83;;;15.52;;
68310;SDS011;55157;51.036;17.058;2024-03-23T04:19:52;20.23;;;14.40;;
68310;SDS011;55157;51.036;17.058;2024-03-23T04:22:18;20.80;;;15.25;;
68310;SDS011;55157;51.036;17.058;2024-03-23T04:24:44;25.33;;;15.60;;
68310;SDS011;55157;51.036;17.058;2024-03-23T04:27:09;21.27;;;15.50;;
68310;SDS011;55157;51.036;17.058;2024-03-23T04:29:34;24.77;;;15.80;;
68310;SDS011;55157;51.036;17.058;2024-03-23T04:31:59;23.33;;;15.85;;
68310;SDS011;55157;51.036;17.058;2024-03-23T04:34:24;28.27;;;14.80;;
68310;SDS011;55157;51.036;17.058;2024-03-23T04:36:50;22.25;;;15.35;;
68310;SDS011;55157;51.036;17.058;2024-03-23T04:39:16;21.13;;;14.03;;
68310;SDS011;55157;51.036;17.058;2024-03-23T04:41:41;23.33;;;15.45;;
68310;SDS011;55157;51.036;17.058;2024-03-23T04:44:07;17.67;;;13.80;;
68310;SDS011;55157;51.036;17.058;2024-03-23T04:46:32;17.83;;;13.73;;
68310;SDS011;55157;51.036;17.058;2024-03-23T04:48:57;19.00;;;13.20;;
68310;SDS011;55157;51.036;17.058;2024-03-23T04:51:22;21.15;;;14.98;;
68310;SDS011;55157;51.036;17.058;2024-03-23T04:53:48;22.10;;;13.95;;
68310;SDS011;55157;51.036;17.058;2024-03-23T04:56:14;19.95;;;15.40;;
68310;SDS011;55157;51.036;17.058;2024-03-23T04:58:40;21.67;;;16.35;;
68310;SDS011;55157;51.036;17.058;2024-03-23T05:01:05;20.52;;;15.23;;
68310;SDS011;55157;51.036;17.058;2024-03-23T05:03:30;19.02;;;14.15;;
68310;SDS011;55157;51.036;17.058;2024-03-23T05:05:55;17.25;;;13.73;;
68310;SDS011;55157;51.036;17.058;2024-03-23T05:08:20;18.92;;;15.52;;
68310;SDS011;55157;51.036;17.058;2024-03-23T05:10:46;20.48;;;14.73;;
68310;SDS011;55157;51.036;17.058;2024-03-23T05:13:13;20.98;;;14.98;;
68310;SDS011;55157;51.036;17.058;2024-03-23T05:15:38;22.15;;;15.23;;
68310;SDS011;55157;51.036;17.058;2024-03-23T05:18:04;20.10;;;15.00;;
68310;SDS011;55157;51.036;17.058;2024-03-23T05:20:29;20.75;;;14.07;;
68310;SDS011;55157;51.036;17.058;2024-03-23T05:22:54;19.15;;;14.55;;
68310;SDS011;55157;51.036;17.058;2024-03-23T05:25:19;19.45;;;14.80;;
68310;SDS011;55157;51.036;17.058;2024-03-23T05:27:45;28.00;;;16.20;;
68310;SDS011;55157;51.036;17.058;2024-03-23T05:30:12;21.83;;;15.43;;
68310;SDS011;55157;51.036;17.058;2024-03-23T05:32:37;23.52;;;15.82;;
68310;SDS011;55157;51.036;17.058;2024-03-23T05:35:02;25.90;;;15.25;;
68310;SDS011;55157;51.036;17.058;2024-03-23T05:37:27;23.17;;;14.80;;
68310;SDS011;55157;51.036;17.058;2024-03-23T05:39:52;23.85;;;15.07;;
68310;SDS011;55157;51.036;17.058;2024-03-23T05:42:18;21.90;;;16.00;;
68310;SDS011;55157;51.036;17.058;2024-03-23T05:44:43;26.70;;;15.82;;
68310;SDS011;55157;51.036;17.058;2024-03-23T05:47:10;23.35;;;16.20;;
68310;SDS011;55157;51.036;17.058;2024-03-23T05:49:35;27.17;;;20.15;;
68310;SDS011;55157;51.036;17.058;2024-03-23T05:52:00;28.67;;;20.75;;
68310;SDS011;55157;51.036;17.058;2024-03-23T05:54:25;29.50;;;19.10;;
68310;SDS011;55157;51.036;17.058;2024-03-23T05:56:54;66.13;;;46.80;;
68310;SDS011;55157;51.036;17.058;2024-03-23T05:59:19;59.13;;;39.97;;
68310;SDS011;55157;51.036;17.058;2024-03-23T06:01:44;72.75;;;50.42;;
68310;SDS011;55157;51.036;17.058;2024-03-23T06:04:12;48.85;;;37.72;;
68310;SDS011;55157;51.036;17.058;2024-03-23T06:06:37;27.55;;;19.55;;
68310;SDS011;55157;51.036;17.058;2024-03-23T06:09:03;24.05;;;16.88;;
68310;SDS011;55157;51.036;17.058;2024-03-23T06:11:28;22.70;;;16.45;;
68310;SDS011;55157;51.036;17.058;2024-03-23T06:13:53;24.30;;;16.83;;
68310;SDS011;55157;51.036;17.058;2024-03-23T06:16:18;21.90;;;15.57;;
68310;SDS011;55157;51.036;17.058;2024-03-23T06:18:44;26.33;;;17.52;;
68310;SDS011;55157;51.036;17.058;2024-03-23T06:21:14;178.27;;;87.68;;
68310;SDS011;55157;51.036;17.058;2024-03-23T06:23:40;82.50;;;42.50;;
68310;SDS011;55157;51.036;17.058;2024-03-23T06:26:05;105.28;;;48.90;;
68310;SDS011;55157;51.036;17.058;2024-03-23T06:28:30;33.87;;;20.87;;
68310;SDS011;55157;51.036;17.058;2024-03-23T06:30:55;28.73;;;17.98;;
68310;SDS011;55157;51.036;17.058;2024-03-23T06:33:21;36.67;;;22.27;;
68310;SDS011;55157;51.036;17.058;2024-03-23T06:35:49;61.03;;;33.63;;
68310;SDS011;55157;51.036;17.058;2024-03-23T06:38:16;59.65;;;32.80;;
68310;SDS011;55157;51.036;17.058;2024-03-23T06:40:41;49.75;;;28.75;;
68310;SDS011;55157;51.036;17.058;2024-03-23T06:43:06;30.10;;;18.73;;
68310;SDS011;55157;51.036;17.058;2024-03-23T06:45:31;30.08;;;16.92;;
68310;SDS011;55157;51.036;17.058;2024-03-23T06:47:57;23.30;;;15.60;;
68310;SDS011;55157;51.036;17.058;2024-03-23T06:50:22;25.75;;;15.77;;
68310;SDS011;55157;51.036;17.058;2024-03-23T06:52:47;20.73;;;15.98;;
68310;SDS011;55157;51.036;17.058;2024-03-23T06:55:14;23.30;;;15.57;;
68310;SDS011;55157;51.036;17.058;2024-03-23T06:57:39;22.65;;;15.98;;
68310;SDS011;55157;51.036;17.058;2024-03-23T07:00:04;21.33;;;15.73;;
68310;SDS011;55157;51.036;17.058;2024-03-23T07:02:30;20.50;;;15.23;;
68310;SDS011;55157;51.036;17.058;2024-03-23T07:04:55;23.38;;;16.75;;
68310;SDS011;55157;51.036;17.058;2024-03-23T07:07:22;22.48;;;15.60;;
68310;SDS011;55157;51.036;17.058;2024-03-23T07:09:47;22.92;;;15.07;;
68310;SDS011;55157;51.036;17.058;2024-03-23T07:12:14;23.35;;;16.50;;
68310;SDS011;55157;51.036;17.058;2024-03-23T07:14:39;22.33;;;15.55;;
68310;SDS011;55157;51.036;17.058;2024-03-23T07:17:04;22.08;;;16.20;;
68310;SDS011;55157;51.036;17.058;2024-03-23T07:19:30;18.70;;;15.48;;
68310;SDS011;55157;51.036;17.058;2024-03-23T07:21:55;26.07;;;15.83;;
68310;SDS011;55157;51.036;17.058;2024-03-23T07:24:20;26.63;;;14.83;;
68310;SDS011;55157;51.036;17.058;2024-03-23T07:26:45;23.17;;;14.57;;
68310;SDS011;55157;51.036;17.058;2024-03-23T07:29:12;21.27;;;14.00;;
68310;SDS011;55157;51.036;17.058;2024-03-23T07:31:37;20.63;;;13.93;;
68310;SDS011;55157;51.036;17.058;2024-03-23T07:34:02;20.40;;;13.73;;
68310;SDS011;55157;51.036;17.058;2024-03-23T07:36:28;22.23;;;14.13;;
68310;SDS011;55157;51.036;17.058;2024-03-23T07:38:53;21.58;;;13.90;;
68310;SDS011;55157;51.036;17.058;2024-03-23T07:41:18;17.92;;;13.98;;
68310;SDS011;55157;51.036;17.058;2024-03-23T07:43:44;22.40;;;12.75;;
68310;SDS011;55157;51.036;17.058;2024-03-23T07:46:11;18.45;;;11.48;;
68310;SDS011;55157;51.036;17.058;2024-03-23T07:48:36;13.15;;;11.20;;
68310;SDS011;55157;51.036;17.058;2024-03-23T07:51:02;15.97;;;11.10;;
68310;SDS011;55157;51.036;17.058;2024-03-23T07:53:28;17.23;;;11.93;;
68310;SDS011;55157;51.036;17.058;2024-03-23T07:55:56;20.25;;;11.25;;
68310;SDS011;55157;51.036;17.058;2024-03-23T07:58:21;25.73;;;12.98;;
68310;SDS011;55157;51.036;17.058;2024-03-23T08:00:47;16.58;;;11.80;;
68310;SDS011;55157;51.036;17.058;2024-03-23T08:03:13;16.07;;;10.97;;
68310;SDS011;55157;51.036;17.058;2024-03-23T08:05:39;16.70;;;10.90;;
68310;SDS011;55157;51.036;17.058;2024-03-23T08:08:04;17.60;;;10.97;;
68310;SDS011;55157;51.036;17.058;2024-03-23T08:10:29;16.85;;;11.27;;
68310;SDS011;55157;51.036;17.058;2024-03-23T08:12:54;16.93;;;11.60;;
68310;SDS011;55157;51.036;17.058;2024-03-23T08:15:20;16.40;;;11.30;;
68310;SDS011;55157;51.036;17.058;2024-03-23T08:17:45;15.90;;;10.25;;
68310;SDS011;55157;51.036;17.058;2024-03-23T08:20:12;17.97;;;12.50;;
68310;SDS011;55157;51.036;17.058;2024-03-23T08:22:37;14.57;;;10.98;;
68310;SDS011;55157;51.036;17.058;2024-03-23T08:25:02;13.63;;;11.18;;
68310;SDS011;55157;51.036;17.058;2024-03-23T08:27:27;17.33;;;11.73;;
68310;SDS011;55157;51.036;17.058;2024-03-23T08:29:53;18.97;;;11.27;;
68310;SDS011;55157;51.036;17.058;2024-03-23T08:32:18;16.67;;;11.18;;
68310;SDS011;55157;51.036;17.058;2024-03-23T08:34:44;20.20;;;12.13;;
68310;SDS011;55157;51.036;17.058;2024-03-23T08:37:10;18.25;;;12.70;;
68310;SDS011;55157;51.036;17.058;2024-03-23T08:39:35;16.15;;;12.52;;
68310;SDS011;55157;51.036;17.058;2024-03-23T08:42:01;23.90;;;12.10;;
68310;SDS011;55157;51.036;17.058;2024-03-23T08:44:26;25.83;;;13.87;;
68310;SDS011;55157;51.036;17.058;2024-03-23T08:46:51;23.73;;;14.63;;
68310;SDS011;55157;51.036;17.058;2024-03-23T08:49:16;25.47;;;13.33;;
68310;SDS011;55157;51.036;17.058;2024-03-23T08:51:41;16.08;;;11.20;;
68310;SDS011;55157;51.036;17.058;2024-03-23T08:54:08;19.60;;;11.33;;
68310;SDS011;55157;51.036;17.058;2024-03-23T08:56:33;26.80;;;11.65;;
68310;SDS011;55157;51.036;17.058;2024-03-23T08:58:58;18.47;;;11.87;;
68310;SDS011;55157;51.036;17.058;2024-03-23T09:01:23;19.27;;;11.83;;
68310;SDS011;55157;51.036;17.058;2024-03-23T09:03:49;14.97;;;10.57;;
68310;SDS011;55157;51.036;17.058;2024-03-23T09:06:14;18.67;;;12.60;;
68310;SDS011;55157;51.036;17.058;2024-03-23T09:08:40;27.45;;;13.63;;
68310;SDS011;55157;51.036;17.058;2024-03-23T09:11:07;38.05;;;17.80;;
68310;SDS011;55157;51.036;17.058;2024-03-23T09:13:32;40.40;;;18.15;;
68310;SDS011;55157;51.036;17.058;2024-03-23T09:15:57;28.80;;;18.35;;
68310;SDS011;55157;51.036;17.058;2024-03-23T09:18:23;29.60;;;16.45;;
68310;SDS011;55157;51.036;17.058;2024-03-23T09:20:48;26.10;;;14.52;;
68310;SDS011;55157;51.036;17.058;2024-03-23T09:23:13;24.10;;;13.73;;
68310;SDS011;55157;51.036;17.058;2024-03-23T09:25:39;17.92;;;12.15;;
68310;SDS011;55157;51.036;17.058;2024-03-23T09:28:06;20.23;;;12.82;;
68310;SDS011;55157;51.036;17.058;2024-03-23T09:30:31;17.23;;;11.75;;
68310;SDS011;55157;51.036;17.058;2024-03-23T09:32:57;24.38;;;14.00;;
68310;SDS011;55157;51.036;17.058;2024-03-23T09:35:22;54.58;;;27.90;;
68310;SDS011;55157;51.036;17.058;2024-03-23T09:37:47;45.33;;;22.42;;
68310;SDS011;55157;51.036;17.058;2024-03-23T09:40:12;19.23;;;11.80;;
68310;SDS011;55157;51.036;17.058;2024-03-23T09:42:38;16.20;;;11.23;;
68310;SDS011;55157;51.036;17.058;2024-03-23T09:45:10;19.08;;;10.93;;
68310;SDS011;55157;51.036;17.058;2024-03-23T09:47:36;18.10;;;10.98;;
68310;SDS011;55157;51.036;17.058;2024-03-23T09:50:01;13.68;;;10.52;;
68310;SDS011;55157;51.036;17.058;2024-03-23T09:52:26;19.30;;;11.57;;
68310;SDS011;55157;51.036;17.058;2024-03-23T09:54:52;16.08;;;11.48;;
68310;SDS011;55157;51.036;17.058;2024-03-23T09:57:17;19.95;;;12.88;;
68310;SDS011;55157;51.036;17.058;2024-03-23T09:59:42;18.83;;;10.60;;
68310;SDS011;55157;51.036;17.058;2024-03-23T10:02:10;15.77;;;9.65;;
68310;SDS011;55157;51.036;17.058;2024-03-23T10:04:36;18.05;;;12.13;;
68310;SDS011;55157;51.036;17.058;2024-03-23T10:07:05;69.97;;;46.55;;
68310;SDS011;55157;51.036;17.058;2024-03-23T10:09:35;31.15;;;16.38;;
68310;SDS011;55157;51.036;17.058;2024-03-23T10:12:07;21.75;;;13.07;;
68310;SDS011;55157;51.036;17.058;2024-03-23T10:14:32;29.80;;;19.33;;
68310;SDS011;55157;51.036;17.058;2024-03-23T10:17:01;20.75;;;14.55;;
68310;SDS011;55157;51.036;17.058;2024-03-23T10:19:37;26.35;;;15.23;;
68310;SDS011;55157;51.036;17.058;2024-03-23T10:22:02;24.80;;;11.80;;
68310;SDS011;55157;51.036;17.058;2024-03-23T10:24:29;19.33;;;12.43;;
68310;SDS011;55157;51.036;17.058;2024-03-23T10:26:55;13.13;;;9.93;;
68310;SDS011;55157;51.036;17.058;2024-03-23T10:29:21;16.85;;;8.98;;
68310;SDS011;55157;51.036;17.058;2024-03-23T10:31:46;14.57;;;9.65;;
68310;SDS011;55157;51.036;17.058;2024-03-23T10:34:12;17.38;;;10.80;;
68310;SDS011;55157;51.036;17.058;2024-03-23T10:36:38;18.30;;;9.77;;
68310;SDS011;55157;51.036;17.058;2024-03-23T10:39:04;15.50;;;9.75;;
68310;SDS011;55157;51.036;17.058;2024-03-23T10:41:30;12.98;;;10.32;;
68310;SDS011;55157;51.036;17.058;2024-03-23T10:43:56;13.82;;;9.68;;
68310;SDS011;55157;51.036;17.058;2024-03-23T10:46:22;13.85;;;9.55;;
68310;SDS011;55157;51.036;17.058;2024-03-23T10:48:48;15.30;;;10.13;;
68310;SDS011;55157;51.036;17.058;2024-03-23T10:51:13;13.27;;;8.30;;
68310;SDS011;55157;51.036;17.058;2024-03-23T10:53:40;13.43;;;7.53;;
68310;SDS011;55157;51.036;17.058;2024-03-23T10:56:06;10.13;;;5.65;;
68310;SDS011;55157;51.036;17.058;2024-03-23T10:58:32;8.70;;;5.13;;
68310;SDS011;55157;51.036;17.058;2024-03-23T11:00:58;8.07;;;5.40;;
68310;SDS011;55157;51.036;17.058;2024-03-23T11:03:29;11.15;;;5.82;;
68310;SDS011;55157;51.036;17.058;2024-03-23T11:05:55;15.68;;;6.63;;
68310;SDS011;55157;51.036;17.058;2024-03-23T11:08:29;8.93;;;6.10;;
68310;SDS011;55157;51.036;17.058;2024-03-23T11:10:57;9.70;;;5.68;;
68310;SDS011;55157;51.036;17.058;2024-03-23T11:13:36;12.32;;;6.10;;
68310;SDS011;55157;51.036;17.058;2024-03-23T11:16:10;12.20;;;6.00;;
68310;SDS011;55157;51.036;17.058;2024-03-23T11:18:37;11.90;;;5.20;;
68310;SDS011;55157;51.036;17.058;2024-03-23T11:21:02;10.70;;;4.63;;
68310;SDS011;55157;51.036;17.058;2024-03-23T11:23:28;5.95;;;3.53;;
68310;SDS011;55157;51.036;17.058;2024-03-23T11:25:53;10.25;;;3.40;;
68310;SDS011;55157;51.036;17.058;2024-03-23T11:28:20;9.30;;;3.60;;
68310;SDS011;55157;51.036;17.058;2024-03-23T11:30:45;7.00;;;3.75;;
68310;SDS011;55157;51.036;17.058;2024-03-23T11:33:10;7.25;;;3.40;;
68310;SDS011;55157;51.036;17.058;2024-03-23T11:35:37;7.18;;;3.55;;
68310;SDS011;55157;51.036;17.058;2024-03-23T11:38:03;8.52;;;3.45;;
68310;SDS011;55157;51.036;17.058;2024-03-23T11:40:28;3.80;;;2.83;;
68310;SDS011;55157;51.036;17.058;2024-03-23T11:42:55;5.20;;;3.53;;
68310;SDS011;55157;51.036;17.058;2024-03-23T11:45:21;7.72;;;3.88;;
68310;SDS011;55157;51.036;17.058;2024-03-23T11:47:47;12.82;;;3.95;;
68310;SDS011;55157;51.036;17.058;2024-03-23T11:50:18;4.53;;;3.50;;
68310;SDS011;55157;51.036;17.058;2024-03-23T11:52:44;6.97;;;3.95;;
68310;SDS011;55157;51.036;17.058;2024-03-23T11:55:09;8.27;;;3.90;;
68310;SDS011;55157;51.036;17.058;2024-03-23T11:57:34;7.63;;;3.73;;
68310;SDS011;55157;51.036;17.058;2024-03-23T11:59:59;5.47;;;3.60;;
68310;SDS011;55157;51.036;17.058;2024-03-23T12:02:26;8.70;;;3.88;;
68310;SDS011;55157;51.036;17.058;2024-03-23T12:04:51;14.32;;;4.45;;
68310;SDS011;55157;51.036;17.058;2024-03-23T12:07:17;8.93;;;4.30;;
68310;SDS011;55157;51.036;17.058;2024-03-23T12:09:42;9.95;;;5.03;;
68310;SDS011;55157;51.036;17.058;2024-03-23T12:12:08;9.25;;;5.30;;
68310;SDS011;55157;51.036;17.058;2024-03-23T12:14:33;10.15;;;4.70;;
68310;SDS011;55157;51.036;17.058;2024-03-23T12:17:06;8.93;;;5.00;;
68310;SDS011;55157;51.036;17.058;2024-03-23T12:19:33;4.93;;;4.28;;
68310;SDS011;55157;51.036;17.058;2024-03-23T12:21:58;7.97;;;5.03;;
68310;SDS011;55157;51.036;17.058;2024-03-23T12:24:24;6.28;;;4.38;;
68310;SDS011;55157;51.036;17.058;2024-03-23T12:26:49;6.47;;;4.57;;
68310;SDS011;55157;51.036;17.058;2024-03-23T12:29:14;9.50;;;4.00;;
68310;SDS011;55157;51.036;17.058;2024-03-23T12:31:39;5.97;;;4.27;;
68310;SDS011;55157;51.036;17.058;2024-03-23T12:34:04;10.15;;;4.47;;
68310;SDS011;55157;51.036;17.058;2024-03-23T12:36:31;10.50;;;4.70;;
68310;SDS011;55157;51.036;17.058;2024-03-23T12:38:56;7.30;;;3.60;;
68310;SDS011;55157;51.036;17.058;2024-03-23T12:41:21;6.15;;;4.20;;
68310;SDS011;55157;51.036;17.058;2024-03-23T12:43:47;6.00;;;3.83;;
68310;SDS011;55157;51.036;17.058;2024-03-23T12:46:12;8.30;;;4.13;;
68310;SDS011;55157;51.036;17.058;2024-03-23T12:48:37;7.00;;;4.30;;
68310;SDS011;55157;51.036;17.058;2024-03-23T12:51:02;8.53;;;4.70;;
68310;SDS011;55157;51.036;17.058;2024-03-23T12:53:29;10.13;;;5.03;;
68310;SDS011;55157;51.036;17.058;2024-03-23T12:55:54;7.95;;;4.55;;
68310;SDS011;55157;51.036;17.058;2024-03-23T12:58:19;5.55;;;3.85;;
68310;SDS011;55157;51.036;17.058;2024-03-23T13:00:44;5.33;;;4.03;;
68310;SDS011;55157;51.036;17.058;2024-03-23T13:03:13;7.03;;;3.73;;
68310;SDS011;55157;51.036;17.058;2024-03-23T13:05:38;10.98;;;3.97;;
68310;SDS011;55157;51.036;17.058;2024-03-23T13:08:04;5.53;;;3.50;;
68310;SDS011;55157;51.036;17.058;2024-03-23T13:10:30;4.93;;;3.72;;
68310;SDS011;55157;51.036;17.058;2024-03-23T13:12:55;5.07;;;3.65;;
68310;SDS011;55157;51.036;17.058;2024-03-23T13:15:21;9.30;;;3.50;;
68310;SDS011;55157;51.036;17.058;2024-03-23T13:17:46;7.77;;;4.27;;
68310;SDS011;55157;51.036;17.058;2024-03-23T13:20:11;4.87;;;3.67;;
68310;SDS011;55157;51.036;17.058;2024-03-23T13:22:36;7.28;;;4.03;;
68310;SDS011;55157;51.036;17.058;2024-03-23T13:25:01;9.47;;;5.03;;
68310;SDS011;55157;51.036;17.058;2024-03-23T13:27:28;9.95;;;4.53;;
68310;SDS011;55157;51.036;17.058;2024-03-23T13:29:53;7.72;;;3.72;;
68310;SDS011;55157;51.036;17.058;2024-03-23T13:32:19;7.50;;;4.33;;
68310;SDS011;55157;51.036;17.058;2024-03-23T13:34:44;13.35;;;5.13;;
68310;SDS011;55157;51.036;17.058;2024-03-23T13:37:09;8.00;;;5.17;;
68310;SDS011;55157;51.036;17.058;2024-03-23T13:39:34;5.47;;;4.60;;
68310;SDS011;55157;51.036;17.058;2024-03-23T13:41:59;6.87;;;3.50;;
68310;SDS011;55157;51.036;17.058;2024-03-23T13:44:26;13.82;;;3.63;;
68310;SDS011;55157;51.036;17.058;2024-03-23T13:46:51;4.70;;;2.75;;
68310;SDS011;55157;51.036;17.058;2024-03-23T13:49:21;7.00;;;2.83;;
68310;SDS011;55157;51.036;17.058;2024-03-23T13:51:49;4.40;;;3.57;;
68310;SDS011;55157;51.036;17.058;2024-03-23T13:54:14;20.10;;;3.28;;
68310;SDS011;55157;51.036;17.058;2024-03-23T13:56:39;7.80;;;3.25;;
68310;SDS011;55157;51.036;17.058;2024-03-23T13:59:04;7.27;;;2.90;;
68310;SDS011;55157;51.036;17.058;2024-03-23T14:01:31;4.93;;;2.95;;
68310;SDS011;55157;51.036;17.058;2024-03-23T14:03:56;8.95;;;3.08;;
68310;SDS011;55157;51.036;17.058;2024-03-23T14:06:21;9.40;;;2.90;;
68310;SDS011;55157;51.036;17.058;2024-03-23T14:08:49;9.07;;;2.10;;
68310;SDS011;55157;51.036;17.058;2024-03-23T14:11:14;4.82;;;1.85;;
68310;SDS011;55157;51.036;17.058;2024-03-23T14:13:39;3.63;;;1.73;;
68310;SDS011;55157;51.036;17.058;2024-03-23T14:16:05;2.20;;;1.13;;
68310;SDS011;55157;51.036;17.058;2024-03-23T14:18:31;3.05;;;0.75;;
68310;SDS011;55157;51.036;17.058;2024-03-23T14:20:57;1.80;;;0.80;;
68310;SDS011;55157;51.036;17.058;2024-03-23T14:23:22;3.60;;;0.98;;
68310;SDS011;55157;51.036;17.058;2024-03-23T14:25:47;2.70;;;1.20;;
68310;SDS011;55157;51.036;17.058;2024-03-23T14:28:13;1.77;;;1.00;;
68310;SDS011;55157;51.036;17.058;2024-03-23T14:30:38;1.80;;;0.83;;
68310;SDS011;55157;51.036;17.058;2024-03-23T14:33:03;6.03;;;1.20;;
68310;SDS011;55157;51.036;17.058;2024-03-23T14:35:30;2.65;;;0.95;;
68310;SDS011;55157;51.036;17.058;2024-03-23T14:37:55;1.40;;;0.90;;
68310;SDS011;55157;51.036;17.058;2024-03-23T14:40:20;1.00;;;0.83;;
68310;SDS011;55157;51.036;17.058;2024-03-23T14:42:45;3.13;;;1.00;;
68310;SDS011;55157;51.036;17.058;2024-03-23T14:45:10;1.60;;;1.03;;
68310;SDS011;55157;51.036;17.058;2024-03-23T14:47:36;1.30;;;0.70;;
68310;SDS011;55157;51.036;17.058;2024-03-23T14:50:01;3.60;;;0.75;;
68310;SDS011;55157;51.036;17.058;2024-03-23T14:52:27;1.63;;;1.00;;
68310;SDS011;55157;51.036;17.058;2024-03-23T14:54:53;0.80;;;0.77;;
68310;SDS011;55157;51.036;17.058;2024-03-23T14:57:18;2.08;;;0.93;;
68310;SDS011;55157;51.036;17.058;2024-03-23T14:59:43;2.27;;;0.93;;
68310;SDS011;55157;51.036;17.058;2024-03-23T15:02:09;1.08;;;0.80;;